Time;durP1;ratioP1;P1;durP2;ratioP2;P2;SDS_P1;SDS_P2;PMS_P1;PMS_P2;Temp;Humidity;BMP_temperature;BMP_pressure;BME280_temperature;BME280_humidity;BME280_pressure;Samples;Min_cycle;Max_cycle;Signal;HPM_P1;HPM_P2
2022/12/13 00:01:49;;;;;;;23.88;8.80;;;-4.40;99.90;;;;;;5095562;28;20054;-83
2022/12/13 00:04:16;;;;;;;16.65;6.93;;;-4.40;99.90;;;;;;5094780;28;20481;-82
2022/12/13 00:06:42;;;;;;;17.58;7.03;;;-4.40;99.90;;;;;;5095055;28;20062;-82
2022/12/13 00:09:09;;;;;;;19.52;6.95;;;-4.40;99.90;;;;;;5094626;28;20080;-83
2022/12/13 00:11:35;;;;;;;18.52;7.63;;;-4.50;99.90;;;;;;5094948;28;20093;-82
2022/12/13 00:14:01;;;;;;;19.08;7.38;;;-3.20;99.90;;;;;;5094975;28;20047;-83
2022/12/13 00:16:27;;;;;;;16.13;7.20;;;-4.50;99.90;;;;;;5094261;28;20048;-82
2022/12/13 00:18:55;;;;;;;20.45;7.43;;;-4.60;99.90;;;;;;5095029;28;20111;-82
2022/12/13 00:21:24;;;;;;;17.35;6.63;;;-4.60;99.90;;;;;;5094694;28;20101;-82
2022/12/13 00:23:50;;;;;;;20.45;8.85;;;-4.60;99.90;;;;;;5094722;28;20055;-81
2022/12/13 00:26:19;;;;;;;22.42;8.13;;;-4.60;99.90;;;;;;5076100;28;20044;-81
2022/12/13 00:28:48;;;;;;;18.42;7.15;;;-4.50;99.90;;;;;;5094882;28;20047;-82
2022/12/13 00:31:14;;;;;;;20.10;7.55;;;-4.50;99.90;;;;;;5094678;28;20548;-82
2022/12/13 00:33:39;;;;;;;21.05;6.80;;;-4.50;99.90;;;;;;5094306;28;20036;-83
2022/12/13 00:36:09;;;;;;;16.98;8.30;;;-4.60;99.90;;;;;;5094019;28;20397;-83
2022/12/13 00:38:35;;;;;;;16.48;7.55;;;-4.50;99.90;;;;;;5094600;28;20048;-83
2022/12/13 00:41:19;;;;;;;19.45;7.95;;;-3.50;99.90;;;;;;5094039;28;20040;-82
2022/12/13 00:43:45;;;;;;;19.77;7.47;;;-4.50;99.90;;;;;;5074946;28;20046;-81
2022/12/13 00:46:14;;;;;;;19.73;8.07;;;-4.50;99.90;;;;;;5093609;28;20556;-82
2022/12/13 00:48:40;;;;;;;15.45;6.47;;;-4.60;99.90;;;;;;5093932;28;20032;-82
2022/12/13 00:51:10;;;;;;;15.80;6.47;;;-4.00;99.90;;;;;;5094231;28;20119;-82
2022/12/13 00:53:35;;;;;;;18.42;7.07;;;-4.60;99.90;;;;;;5094112;28;20044;-82
2022/12/13 00:56:02;;;;;;;16.98;6.85;;;-4.60;99.90;;;;;;5075504;28;20051;-82
2022/12/13 00:58:27;;;;;;;20.23;7.95;;;-4.60;99.90;;;;;;5093676;28;20047;-81
2022/12/13 01:01:02;;;;;;;18.40;6.78;;;-4.70;99.90;;;;;;5094152;28;20472;-82
2022/12/13 01:03:28;;;;;;;19.63;7.60;;;-4.70;99.90;;;;;;5093973;28;20044;-83
2022/12/13 01:06:00;;;;;;;19.00;6.80;;;-4.70;99.90;;;;;;5093936;28;20048;-81
2022/12/13 01:08:27;;;;;;;16.63;6.43;;;-3.60;99.90;;;;;;5093556;28;20097;-80
2022/12/13 01:10:53;;;;;;;16.92;6.88;;;-4.80;99.90;;;;;;5093909;28;20468;-81
2022/12/13 01:13:19;;;;;;;21.75;7.05;;;-4.80;99.90;;;;;;5093555;28;20108;-81
2022/12/13 01:15:46;;;;;;;18.85;6.85;;;-4.90;99.90;;;;;;5075765;28;20048;-81
2022/12/13 01:18:16;;;;;;;16.20;6.57;;;-4.90;99.90;;;;;;5093917;28;20037;-82
2022/12/13 01:21:03;;;;;;;16.25;6.75;;;-4.90;99.90;;;;;;5093277;28;20056;-81
2022/12/13 01:23:29;;;;;;;17.58;6.22;;;-4.90;99.90;;;;;;5074429;28;20051;-81
2022/12/13 01:25:55;;;;;;;22.45;7.72;;;-4.90;99.90;;;;;;5093589;28;20048;-82
2022/12/13 01:28:21;;;;;;;14.98;5.97;;;-4.90;99.90;;;;;;5093691;28;20082;-81
2022/12/13 01:31:00;;;;;;;16.40;5.68;;;-5.00;99.90;;;;;;5074626;28;20453;-83
2022/12/13 01:33:26;;;;;;;20.40;6.97;;;-5.00;99.90;;;;;;5093259;28;20032;-83
2022/12/13 01:35:53;;;;;;;17.63;6.47;;;-5.00;99.90;;;;;;5093675;28;20071;-83
2022/12/13 01:38:19;;;;;;;16.98;5.93;;;-5.00;99.90;;;;;;5075997;28;20052;-82
2022/12/13 01:40:48;;;;;;;19.98;7.28;;;-5.00;99.90;;;;;;5093186;28;20040;-83
2022/12/13 01:43:15;;;;;;;15.25;6.20;;;-5.10;99.90;;;;;;5093230;28;20127;-83
2022/12/13 01:45:42;;;;;;;18.30;6.50;;;-4.60;99.90;;;;;;5093340;28;20046;-82
2022/12/13 01:48:13;;;;;;;15.23;6.65;;;-5.20;99.90;;;;;;5093118;28;20044;-83
2022/12/13 01:50:46;;;;;;;14.07;5.40;;;-5.20;99.90;;;;;;5092793;28;20040;-82
2022/12/13 01:53:16;;;;;;;18.98;5.82;;;-5.10;99.90;;;;;;5093476;28;20051;-83
2022/12/13 01:55:45;;;;;;;14.02;6.15;;;-4.10;99.90;;;;;;5074956;28;20400;-83
2022/12/13 01:58:12;;;;;;;15.10;6.63;;;-3.50;99.90;;;;;;5093163;28;20051;-83
2022/12/13 02:00:38;;;;;;;17.85;6.55;;;-5.30;99.90;;;;;;5093148;28;20071;-83
2022/12/13 02:03:04;;;;;;;20.90;7.25;;;-5.30;99.90;;;;;;5092882;28;20429;-81
2022/12/13 02:05:42;;;;;;;19.15;7.57;;;-5.80;99.90;;;;;;5092911;28;20040;-82
2022/12/13 02:08:12;;;;;;;18.30;7.00;;;-5.20;99.90;;;;;;5075316;28;20396;-82
2022/12/13 02:10:38;;;;;;;13.75;5.72;;;-5.20;99.90;;;;;;5075483;28;20051;-83
2022/12/13 02:13:04;;;;;;;15.98;6.90;;;-5.20;99.90;;;;;;5092825;28;20096;-83
2022/12/13 02:15:55;;;;;;;19.83;7.35;;;-5.30;99.90;;;;;;5074602;28;20069;-83
2022/12/13 02:18:44;;;;;;;14.15;6.38;;;-5.30;99.90;;;;;;5093190;28;20044;-82
2022/12/13 02:21:31;;;;;;;15.35;6.75;;;-5.30;99.90;;;;;;5092946;28;20516;-83
2022/12/13 02:24:18;;;;;;;18.10;7.15;;;-5.30;99.90;;;;;;5074396;28;20489;-82
2022/12/13 02:26:53;;;;;;;15.00;6.90;;;-5.30;99.90;;;;;;5092809;28;20464;-83
2022/12/13 02:29:29;;;;;;;17.40;6.88;;;-5.30;99.90;;;;;;5092917;28;20048;-83
2022/12/13 02:32:07;;;;;;;18.17;6.93;;;-5.30;99.90;;;;;;5092714;28;20131;-83
2022/12/13 02:34:42;;;;;;;18.95;7.45;;;-5.30;99.90;;;;;;5092057;28;20408;-83
2022/12/13 02:37:29;;;;;;;13.77;5.80;;;-5.30;99.90;;;;;;5074111;28;20045;-82
2022/12/13 02:40:07;;;;;;;16.70;5.95;;;-5.30;99.90;;;;;;5074949;28;20078;-82
2022/12/13 02:42:58;;;;;;;13.98;5.50;;;-5.30;99.90;;;;;;5074617;28;20464;-83
2022/12/13 02:45:32;;;;;;;19.27;6.90;;;-5.30;99.90;;;;;;5074245;28;20135;-83
2022/12/13 02:48:01;;;;;;;15.88;6.38;;;-5.40;99.90;;;;;;5092156;28;20064;-83
2022/12/13 02:50:29;;;;;;;16.08;7.28;;;-5.40;99.90;;;;;;5092444;28;20575;-83
2022/12/13 02:52:55;;;;;;;17.67;6.45;;;-3.40;99.90;;;;;;5092611;28;20056;-83
2022/12/13 02:55:21;;;;;;;18.65;6.75;;;-5.50;99.90;;;;;;5092188;28;20097;-83
2022/12/13 02:57:47;;;;;;;16.13;6.70;;;-5.50;99.90;;;;;;5091596;28;20462;-83
2022/12/13 03:00:15;;;;;;;16.60;6.43;;;-5.50;99.90;;;;;;5092528;28;20051;-81
2022/12/13 03:02:53;;;;;;;18.45;7.75;;;-5.40;99.90;;;;;;5092500;28;20554;-82
2022/12/13 03:08:19;;;;;;;15.63;6.45;;;-5.50;99.90;;;;;;5092565;28;20044;-82
2022/12/13 03:11:05;;;;;;;16.05;6.28;;;-5.40;99.90;;;;;;5095542;28;20040;-82
2022/12/13 03:13:47;;;;;;;13.50;6.28;;;-5.50;99.90;;;;;;5061733;28;20484;-83
2022/12/13 03:16:25;;;;;;;16.25;7.05;;;-5.40;99.90;;;;;;5095776;28;20040;-83
2022/12/13 03:18:53;;;;;;;13.07;5.57;;;-5.40;99.90;;;;;;5096019;28;20511;-84
2022/12/13 03:21:19;;;;;;;15.23;6.05;;;-5.50;99.90;;;;;;5077474;28;20048;-83
2022/12/13 03:23:46;;;;;;;14.48;6.05;;;-5.00;99.90;;;;;;5061514;28;20048;-83
2022/12/13 03:26:15;;;;;;;12.38;5.55;;;-5.50;99.90;;;;;;5077702;28;20139;-82
2022/12/13 03:28:41;;;;;;;13.77;5.35;;;-5.50;99.90;;;;;;5095656;28;20055;-82
2022/12/13 03:31:07;;;;;;;11.45;5.40;;;-5.50;99.90;;;;;;5095185;28;20480;-83
2022/12/13 03:33:33;;;;;;;20.27;7.30;;;-5.60;99.90;;;;;;5095759;28;20043;-82
2022/12/13 03:35:59;;;;;;;20.60;6.43;;;-5.60;99.90;;;;;;5095766;28;20040;-82
2022/12/13 03:38:25;;;;;;;13.45;6.32;;;-5.60;99.90;;;;;;5094996;28;20044;-82
2022/12/13 03:40:55;;;;;;;19.45;8.15;;;-5.60;99.90;;;;;;5077328;28;20044;-83
2022/12/13 03:43:21;;;;;;;15.23;6.15;;;-5.60;99.90;;;;;;5095414;28;20090;-83
2022/12/13 03:45:51;;;;;;;19.35;6.47;;;-5.60;99.90;;;;;;5095359;28;20083;-83
2022/12/13 03:48:17;;;;;;;15.00;5.55;;;-5.60;99.90;;;;;;5095116;28;20036;-83
2022/12/13 03:50:43;;;;;;;15.90;6.13;;;-5.50;99.90;;;;;;5095509;28;20048;-82
2022/12/13 03:53:08;;;;;;;17.13;6.97;;;-5.50;99.90;;;;;;5094642;28;20097;-83
2022/12/13 03:55:34;;;;;;;20.05;6.72;;;-5.50;99.90;;;;;;5095348;28;20040;-83
2022/12/13 03:57:59;;;;;;;14.45;6.43;;;-5.50;99.90;;;;;;5095236;28;20051;-82
2022/12/13 04:00:25;;;;;;;20.58;7.45;;;-5.50;99.90;;;;;;5094227;28;20188;-83
2022/12/13 04:02:51;;;;;;;17.95;7.68;;;-5.50;99.90;;;;;;5094678;28;20097;-82
2022/12/13 04:05:16;;;;;;;17.90;6.88;;;-5.50;99.90;;;;;;5095057;28;20040;-83
2022/12/13 04:07:42;;;;;;;16.40;6.95;;;-5.50;99.90;;;;;;5076962;28;20051;-83
2022/12/13 04:10:08;;;;;;;19.33;6.90;;;-5.60;99.90;;;;;;5094402;28;20040;-83
2022/12/13 04:15:18;;;;;;;15.80;6.82;;;-5.60;99.90;;;;;;5094673;28;20491;-83
2022/12/13 04:17:44;;;;;;;13.00;6.35;;;-5.60;99.90;;;;;;5095026;28;20048;-83
2022/12/13 04:20:10;;;;;;;19.38;7.63;;;-5.60;99.90;;;;;;5093734;28;20511;-83
2022/12/13 04:22:35;;;;;;;16.73;6.53;;;-5.60;99.90;;;;;;5093872;28;20044;-83
2022/12/13 04:25:02;;;;;;;16.25;6.88;;;-5.60;99.90;;;;;;5075643;28;20043;-82
2022/12/13 04:27:27;;;;;;;12.80;6.07;;;-5.60;99.90;;;;;;5076492;28;20044;-82
2022/12/13 04:29:53;;;;;;;14.50;5.63;;;-5.60;99.90;;;;;;5094502;28;20051;-82
2022/12/13 04:32:18;;;;;;;18.48;5.55;;;-5.60;99.90;;;;;;5076206;28;20135;-81
2022/12/13 04:34:44;;;;;;;19.75;6.72;;;-5.60;99.90;;;;;;5094375;28;20032;-83
2022/12/13 04:37:10;;;;;;;15.70;6.57;;;-5.60;99.90;;;;;;5094662;28;20123;-82
2022/12/13 04:39:35;;;;;;;15.00;6.57;;;-5.60;99.90;;;;;;5094708;28;20432;-83
2022/12/13 04:42:01;;;;;;;18.10;6.90;;;-5.70;99.90;;;;;;5094498;28;20048;-83
2022/12/13 04:44:27;;;;;;;15.75;7.07;;;-4.90;99.90;;;;;;5093944;28;20027;-82
2022/12/13 04:46:53;;;;;;;17.58;6.45;;;-5.60;99.90;;;;;;5093875;28;20038;-82
2022/12/13 04:49:18;;;;;;;16.65;6.10;;;-5.60;99.90;;;;;;5094418;28;20040;-82
2022/12/13 04:51:44;;;;;;;10.13;5.97;;;-5.70;99.90;;;;;;5094163;28;20064;-82
2022/12/13 04:54:10;;;;;;;16.40;6.43;;;-5.70;99.90;;;;;;5094587;28;20094;-83
2022/12/13 04:56:36;;;;;;;13.07;6.28;;;-5.30;99.90;;;;;;5093869;28;20075;-81
2022/12/13 04:59:02;;;;;;;17.33;6.57;;;-5.70;99.90;;;;;;5093689;28;20044;-83
2022/12/13 05:01:28;;;;;;;14.43;6.18;;;-5.70;99.90;;;;;;5076208;28;20040;-82
2022/12/13 05:03:53;;;;;;;18.38;7.22;;;-6.00;99.90;;;;;;5094351;28;20132;-82
2022/12/13 05:06:19;;;;;;;14.82;6.25;;;-5.90;99.90;;;;;;5093787;28;20046;-82
2022/12/13 05:08:45;;;;;;;12.85;5.75;;;-5.80;99.90;;;;;;5075760;28;20048;-82
2022/12/13 05:11:11;;;;;;;11.63;5.28;;;-4.70;99.90;;;;;;5075547;28;20040;-82
2022/12/13 05:13:37;;;;;;;15.43;5.57;;;-5.70;99.90;;;;;;5093709;28;20109;-83
2022/12/13 05:16:05;;;;;;;24.05;7.68;;;-5.90;99.90;;;;;;5093848;28;20058;-82
2022/12/13 05:18:32;;;;;;;15.23;6.65;;;-5.80;99.90;;;;;;5093697;28;20038;-82
2022/12/13 05:21:02;;;;;;;17.27;7.55;;;-5.80;99.90;;;;;;5093577;28;20509;-82
2022/12/13 05:23:28;;;;;;;16.38;6.57;;;-5.80;99.90;;;;;;5093842;28;20048;-82
2022/12/13 05:25:53;;;;;;;16.05;6.95;;;-5.80;99.90;;;;;;5093707;28;20208;-82
2022/12/13 05:28:19;;;;;;;13.68;6.93;;;-5.80;99.90;;;;;;5092902;28;20040;-82
2022/12/13 05:30:45;;;;;;;16.55;7.10;;;-5.80;99.90;;;;;;5093473;28;20512;-82
2022/12/13 05:33:11;;;;;;;16.95;6.43;;;-5.80;99.90;;;;;;5092625;28;20104;-83
2022/12/13 05:35:36;;;;;;;11.75;5.47;;;-5.80;99.90;;;;;;5075131;28;20409;-83
2022/12/13 05:38:03;;;;;;;15.10;5.15;;;-5.80;99.90;;;;;;5074976;28;20067;-83
2022/12/13 05:40:31;;;;;;;16.50;5.78;;;-5.80;99.90;;;;;;5093453;28;20145;-83
2022/12/13 05:42:57;;;;;;;23.05;7.25;;;-5.80;99.90;;;;;;5093541;28;20059;-83
2022/12/13 05:45:22;;;;;;;14.10;5.65;;;-6.00;99.90;;;;;;5074690;28;20481;-83
2022/12/13 05:47:48;;;;;;;17.60;6.05;;;-5.80;99.90;;;;;;5093352;28;20044;-82
2022/12/13 05:50:15;;;;;;;16.45;6.57;;;-5.80;99.90;;;;;;5093240;28;20044;-83
2022/12/13 05:52:44;;;;;;;14.05;4.90;;;-5.80;99.90;;;;;;5093090;28;20079;-83
2022/12/13 05:55:10;;;;;;;12.68;5.88;;;-5.80;99.90;;;;;;5093140;28;20030;-83
2022/12/13 05:57:37;;;;;;;15.85;6.13;;;-5.80;99.90;;;;;;5075323;28;20059;-83
2022/12/13 06:00:05;;;;;;;12.05;5.38;;;-5.80;99.90;;;;;;5092851;28;20047;-82
2022/12/13 06:02:31;;;;;;;15.13;6.13;;;-5.80;99.90;;;;;;5092342;28;20399;-83
2022/12/13 06:04:56;;;;;;;14.02;5.78;;;-5.90;99.90;;;;;;5092772;28;20127;-82
2022/12/13 06:07:22;;;;;;;15.98;6.55;;;-5.80;99.90;;;;;;5093034;28;20048;-82
2022/12/13 06:09:47;;;;;;;15.27;5.53;;;-5.90;99.90;;;;;;5092836;28;20070;-82
2022/12/13 06:12:15;;;;;;;12.10;5.47;;;-5.70;99.90;;;;;;5074903;28;20044;-83
2022/12/13 06:14:41;;;;;;;16.70;5.88;;;-5.90;99.90;;;;;;5092550;28;20050;-82
2022/12/13 06:17:06;;;;;;;15.88;6.30;;;-5.90;99.90;;;;;;5092952;28;20384;-82
2022/12/13 06:19:32;;;;;;;12.50;5.15;;;-5.90;99.90;;;;;;5093074;28;20052;-82
2022/12/13 06:21:58;;;;;;;16.15;6.07;;;-5.90;99.90;;;;;;5092323;28;20493;-83
2022/12/13 06:24:23;;;;;;;18.77;6.80;;;-5.90;99.90;;;;;;5092971;28;20040;-82
2022/12/13 06:26:50;;;;;;;12.15;5.68;;;-5.90;99.90;;;;;;5075191;28;20109;-82
2022/12/13 06:29:18;;;;;;;10.18;5.13;;;-6.00;99.90;;;;;;5074370;28;20127;-82
2022/12/13 06:31:43;;;;;;;13.25;5.32;;;-6.00;99.90;;;;;;5092430;28;20048;-82
2022/12/13 06:34:09;;;;;;;14.40;5.05;;;-6.00;99.90;;;;;;5074799;28;20040;-82
2022/12/13 06:36:35;;;;;;;11.68;5.47;;;-6.00;99.90;;;;;;5091805;28;20048;-81
2022/12/13 06:39:02;;;;;;;12.80;5.93;;;-6.00;99.90;;;;;;5092918;28;20040;-81
2022/12/13 06:41:28;;;;;;;13.90;6.55;;;-6.00;99.90;;;;;;5092412;28;20051;-81
2022/12/13 06:44:00;;;;;;;17.30;6.35;;;-6.00;99.90;;;;;;5093218;28;20044;-82
2022/12/13 06:46:25;;;;;;;15.85;5.25;;;-6.00;99.90;;;;;;5096432;28;20052;-82
2022/12/13 06:48:52;;;;;;;13.75;6.00;;;-5.90;99.90;;;;;;5096162;28;20396;-82
2022/12/13 06:51:18;;;;;;;12.68;5.60;;;-6.00;99.90;;;;;;5096522;28;20033;-82
2022/12/13 06:53:43;;;;;;;15.65;6.80;;;-5.60;99.90;;;;;;5078222;28;20055;-81
2022/12/13 06:56:13;;;;;;;18.20;6.32;;;-6.10;99.90;;;;;;5096609;28;20472;-82
2022/12/13 06:58:40;;;;;;;12.68;5.38;;;-5.80;99.90;;;;;;5096692;28;20476;-82
2022/12/13 07:01:10;;;;;;;13.88;6.93;;;-5.90;99.90;;;;;;5078185;28;20044;-82
2022/12/13 07:03:36;;;;;;;10.55;5.20;;;-5.90;99.90;;;;;;5096038;28;20035;-82
2022/12/13 07:06:15;;;;;;;10.90;5.45;;;-5.80;99.90;;;;;;5077825;28;20101;-82
2022/12/13 07:08:43;;;;;;;16.48;6.68;;;-5.80;99.90;;;;;;5077873;28;20501;-82
2022/12/13 07:11:17;;;;;;;14.43;6.38;;;-5.80;99.90;;;;;;5095488;28;20055;-81
2022/12/13 07:13:43;;;;;;;15.20;6.20;;;-5.70;99.90;;;;;;5095296;28;20044;-82
2022/12/13 07:16:10;;;;;;;16.73;6.65;;;-5.80;99.90;;;;;;5096269;28;20067;-81
2022/12/13 07:18:36;;;;;;;14.95;5.72;;;-5.70;99.90;;;;;;5095720;28;20040;-82
2022/12/13 07:21:06;;;;;;;14.05;6.63;;;-5.70;99.90;;;;;;5095900;28;20044;-83
2022/12/13 07:23:34;;;;;;;14.98;5.90;;;-5.80;99.90;;;;;;5095982;28;20127;-81
2022/12/13 07:26:00;;;;;;;17.80;6.40;;;-5.80;99.90;;;;;;5095600;28;20440;-82
2022/12/13 07:28:25;;;;;;;17.33;7.05;;;-5.90;99.90;;;;;;5095639;28;20177;-81
2022/12/13 07:30:51;;;;;;;14.93;7.20;;;-5.90;99.90;;;;;;5095121;28;20552;-82
2022/12/13 07:33:17;;;;;;;16.67;7.40;;;-5.90;99.90;;;;;;5076862;28;20044;-81
2022/12/13 07:35:43;;;;;;;15.40;6.90;;;-5.90;99.90;;;;;;5077435;28;20036;-81
2022/12/13 07:38:09;;;;;;;15.20;6.70;;;-6.00;99.90;;;;;;5095386;28;20036;-82
2022/12/13 07:40:38;;;;;;;13.35;6.00;;;-6.00;99.90;;;;;;5095276;28;20044;-82
2022/12/13 07:43:04;;;;;;;11.25;5.72;;;-6.10;99.90;;;;;;5095382;28;20036;-84
2022/12/13 07:45:30;;;;;;;16.45;7.05;;;-5.40;99.90;;;;;;5094493;28;20048;-82
2022/12/13 07:47:55;;;;;;;16.35;7.13;;;-4.30;99.90;;;;;;5094874;28;20086;-84
2022/12/13 07:50:21;;;;;;;14.15;6.97;;;-4.70;99.90;;;;;;5095152;28;20123;-83
2022/12/13 07:52:49;;;;;;;18.73;6.18;;;-5.00;99.90;;;;;;5077754;28;20511;-83
2022/12/13 07:55:16;;;;;;;15.13;6.95;;;-6.00;99.90;;;;;;5094781;28;20033;-84
2022/12/13 07:57:45;;;;;;;15.95;6.45;;;-6.00;99.90;;;;;;5094814;28;20044;-82
2022/12/13 08:00:11;;;;;;;16.33;6.88;;;-6.00;99.90;;;;;;5094889;28;20051;-83
2022/12/13 08:02:38;;;;;;;13.95;7.00;;;-5.90;99.90;;;;;;5095402;28;20466;-82
2022/12/13 08:05:04;;;;;;;11.45;5.57;;;-6.00;99.90;;;;;;5076629;28;20483;-83
2022/12/13 08:07:30;;;;;;;13.98;6.25;;;-5.90;99.90;;;;;;5094604;28;20047;-83
2022/12/13 08:09:55;;;;;;;18.73;6.78;;;-5.90;99.90;;;;;;5077262;28;20040;-84
2022/12/13 08:12:21;;;;;;;12.63;6.63;;;-5.90;99.90;;;;;;5060309;28;20119;-84
2022/12/13 08:14:47;;;;;;;16.67;5.55;;;-5.30;99.90;;;;;;5076989;28;20040;-84
2022/12/13 08:17:12;;;;;;;14.13;6.38;;;-5.40;99.90;;;;;;5095232;28;20071;-84
2022/12/13 08:19:38;;;;;;;12.85;6.20;;;-5.90;99.90;;;;;;5094214;28;20569;-84
2022/12/13 08:22:04;;;;;;;18.65;6.82;;;-5.60;99.90;;;;;;5076884;28;20051;-83
2022/12/13 08:24:30;;;;;;;12.57;6.47;;;-6.40;99.90;;;;;;5094944;28;20370;-82
2022/12/13 08:27:01;;;;;;;14.73;5.97;;;-5.80;99.90;;;;;;5094796;28;20482;-84
2022/12/13 08:29:27;;;;;;;11.35;5.72;;;-5.90;99.90;;;;;;5094391;28;20131;-85
2022/12/13 08:31:53;;;;;;;12.68;5.25;;;-5.80;99.90;;;;;;5076429;28;20079;-81
2022/12/13 08:34:19;;;;;;;17.88;6.85;;;-5.80;99.90;;;;;;5094147;28;20441;-82
2022/12/13 08:36:44;;;;;;;12.45;6.25;;;-5.70;99.90;;;;;;5076214;28;20055;-82
2022/12/13 08:39:10;;;;;;;14.52;5.63;;;-4.50;99.90;;;;;;5094350;28;20408;-84
2022/12/13 08:41:36;;;;;;;10.35;4.55;;;-4.90;99.90;;;;;;5076342;28;20105;-81
2022/12/13 08:44:01;;;;;;;11.80;5.20;;;-5.60;99.90;;;;;;5094445;28;20051;-84
2022/12/13 08:46:27;;;;;;;15.50;5.82;;;-5.50;99.90;;;;;;5077246;28;20076;-82
2022/12/13 08:48:53;;;;;;;10.73;4.65;;;-5.50;99.90;;;;;;5094550;28;20040;-82
2022/12/13 08:51:22;;;;;;;14.52;5.25;;;-5.40;99.90;;;;;;5076470;28;20488;-83
2022/12/13 08:53:49;;;;;;;14.07;5.82;;;-5.40;99.90;;;;;;5094321;28;20047;-84
2022/12/13 08:56:17;;;;;;;11.35;5.00;;;-5.40;99.90;;;;;;5094306;28;20043;-82
2022/12/13 08:58:43;;;;;;;11.52;5.60;;;-5.30;99.90;;;;;;5076065;28;20396;-84
2022/12/13 09:01:09;;;;;;;14.07;6.13;;;-5.30;99.90;;;;;;5093604;28;20047;-83
2022/12/13 09:03:36;;;;;;;15.45;6.75;;;-5.20;99.90;;;;;;5100842;28;20491;-83
2022/12/13 09:06:11;;;;;;;15.75;6.28;;;-5.20;99.90;;;;;;5114586;28;20031;-85
2022/12/13 09:08:37;;;;;;;14.60;5.78;;;-5.10;99.90;;;;;;5113958;28;20039;-83
2022/12/13 09:11:04;;;;;;;14.20;6.18;;;-5.10;99.90;;;;;;5097055;28;20568;-85
2022/12/13 09:13:32;;;;;;;14.45;5.78;;;-5.00;99.90;;;;;;5076388;28;20074;-85
2022/12/13 09:15:58;;;;;;;15.23;7.00;;;-5.00;99.90;;;;;;5094145;28;20079;-85
2022/12/13 09:18:24;;;;;;;12.98;5.35;;;-4.30;99.90;;;;;;5076150;28;20507;-86
2022/12/13 09:20:50;;;;;;;15.40;6.03;;;-4.90;99.90;;;;;;5093847;28;20585;-83
2022/12/13 09:23:16;;;;;;;15.20;5.65;;;-4.90;99.90;;;;;;5094224;28;20134;-86
2022/12/13 09:25:42;;;;;;;14.82;5.60;;;-4.80;99.90;;;;;;5093644;28;20082;-83
2022/12/13 09:28:08;;;;;;;17.15;7.25;;;-4.80;99.90;;;;;;5075744;28;20039;-86
2022/12/13 09:30:36;;;;;;;13.77;6.25;;;-4.30;99.90;;;;;;5094169;28;20114;-85
2022/12/13 09:33:02;;;;;;;11.98;5.57;;;-4.70;99.90;;;;;;5095317;28;20040;-81
2022/12/13 09:35:27;;;;;;;12.88;6.47;;;-4.60;99.90;;;;;;5097512;28;20131;-85
2022/12/13 09:37:54;;;;;;;16.33;7.05;;;-3.40;99.90;;;;;;5096821;28;20048;-84
2022/12/13 09:40:24;;;;;;;16.40;7.30;;;-4.10;99.90;;;;;;5077874;28;20507;-87
2022/12/13 09:42:54;;;;;;;12.60;5.78;;;-4.50;99.90;;;;;;5094184;28;20032;-84
2022/12/13 09:45:20;;;;;;;16.92;6.65;;;-4.40;99.90;;;;;;5094332;28;20501;-86
2022/12/13 09:47:48;;;;;;;15.52;6.57;;;-4.40;99.90;;;;;;5075317;28;20064;-85
2022/12/13 09:50:28;;;;;;;15.65;6.88;;;-4.30;99.90;;;;;;5093630;28;20040;-86
2022/12/13 09:52:54;;;;;;;15.38;6.82;;;-4.20;99.90;;;;;;5090133;28;20044;-89
2022/12/13 09:55:28;;;;;;;12.27;5.50;;;-4.10;99.90;;;;;;5075032;28;20048;-81
2022/12/13 09:57:55;;;;;;;13.90;6.05;;;-4.00;99.90;;;;;;5083111;28;20055;-87
2022/12/13 10:00:24;;;;;;;11.88;5.65;;;-3.90;99.90;;;;;;5093527;28;20039;-86
2022/12/13 10:02:54;;;;;;;14.88;6.38;;;-3.90;99.90;;;;;;5075307;28;20048;-85
2022/12/13 10:05:25;;;;;;;11.73;5.50;;;-3.70;99.90;;;;;;5093238;28;20040;-89
2022/12/13 10:07:54;;;;;;;16.08;5.85;;;-3.60;99.90;;;;;;5092688;28;20094;-84
2022/12/13 10:10:23;;;;;;;10.85;5.07;;;-3.50;99.90;;;;;;5093087;28;20052;-86
2022/12/13 10:12:59;;;;;;;16.98;7.25;;;-2.50;99.90;;;;;;5093259;28;20203;-83
2022/12/13 10:15:26;;;;;;;24.63;10.05;;;-3.30;99.90;;;;;;5093263;28;20097;-83
2022/12/13 10:17:52;;;;;;;21.65;8.52;;;-3.20;99.90;;;;;;5093340;28;20424;-82
2022/12/13 10:20:20;;;;;;;16.45;8.00;;;-2.30;99.90;;;;;;5095832;28;20105;-83
2022/12/13 10:22:46;;;;;;;22.05;8.25;;;-3.10;99.90;;;;;;5096864;28;20051;-83
2022/12/13 10:25:12;;;;;;;16.63;7.65;;;-3.00;99.90;;;;;;5078429;28;20040;-83
2022/12/13 10:27:41;;;;;;;15.48;6.93;;;-2.90;99.90;;;;;;5097189;28;20089;-83
2022/12/13 10:30:11;;;;;;;13.38;5.85;;;-2.80;99.90;;;;;;5097140;28;20079;-82
2022/12/13 10:33:00;;;;;;;14.95;6.28;;;-2.70;99.90;;;;;;5097114;28;20447;-81
2022/12/13 10:35:37;;;;;;;14.68;6.28;;;-2.60;99.90;;;;;;5078982;28;20052;-85
2022/12/13 10:38:15;;;;;;;10.50;4.18;;;-2.50;99.90;;;;;;5096989;28;20054;-81
2022/12/13 10:40:45;;;;;;;10.23;4.93;;;-2.50;99.90;;;;;;5077362;28;20036;-84
2022/12/13 10:43:19;;;;;;;12.45;5.47;;;-2.40;99.90;;;;;;5096306;28;20039;-82
2022/12/13 10:45:57;;;;;;;11.82;4.53;;;-2.30;99.90;;;;;;5096226;28;20059;-81
2022/12/13 10:48:35;;;;;;;10.75;4.70;;;-2.10;99.90;;;;;;5097012;28;20048;-81
2022/12/13 10:51:09;;;;;;;17.08;6.80;;;-1.10;99.90;;;;;;5096381;28;20080;-81
2022/12/13 10:53:44;;;;;;;12.97;5.30;;;-2.00;99.90;;;;;;5096484;28;20500;-81
2022/12/13 10:56:10;;;;;;;16.20;6.50;;;-1.30;99.90;;;;;;5096305;28;20449;-82
2022/12/13 10:58:40;;;;;;;12.85;5.68;;;-1.90;99.90;;;;;;5096268;28;20040;-81
2022/12/13 11:01:19;;;;;;;13.07;5.75;;;-1.80;99.90;;;;;;5096267;28;20051;-82
2022/12/13 11:04:18;;;;;;;17.00;7.45;;;-0.50;99.90;;;;;;5095856;28;20044;-83
2022/12/13 11:06:46;;;;;;;18.52;8.38;;;-1.50;99.90;;;;;;5096025;28;20044;-82
2022/12/13 11:09:22;;;;;;;23.25;10.00;;;-1.40;99.90;;;;;;5096066;28;20038;-83
2022/12/13 11:11:50;;;;;;;20.77;10.55;;;-1.30;99.90;;;;;;5096007;28;20044;-84
2022/12/13 11:14:19;;;;;;;19.63;10.40;;;-0.90;99.90;;;;;;5095752;28;20036;-84
2022/12/13 11:16:51;;;;;;;19.85;8.65;;;-1.20;99.90;;;;;;5075966;28;20060;-87
2022/12/13 11:19:23;;;;;;;18.85;9.00;;;-1.00;99.90;;;;;;5089288;28;20500;-82
2022/12/13 11:21:51;;;;;;;19.30;8.85;;;-0.20;99.90;;;;;;5089187;28;20067;-83
2022/12/13 11:24:27;;;;;;;19.70;8.38;;;-1.00;99.90;;;;;;5096159;28;20477;-83
2022/12/13 11:26:57;;;;;;;22.73;9.10;;;-0.90;99.90;;;;;;5096033;28;20044;-82
2022/12/13 11:29:46;;;;;;;20.98;9.55;;;-0.90;99.90;;;;;;5095834;28;20052;-82
2022/12/13 11:32:26;;;;;;;21.73;8.80;;;-0.80;99.90;;;;;;5095878;28;20051;-82
2022/12/13 11:35:24;;;;;;;25.70;11.68;;;-0.70;99.90;;;;;;5093940;28;20044;-83
2022/12/13 11:38:12;;;;;;;19.67;9.68;;;-0.70;99.90;;;;;;4994552;28;20050;-85
2022/12/13 11:40:45;;;;;;;24.08;11.45;;;-0.60;99.90;;;;;;4978264;28;20474;-83
2022/12/13 11:43:18;;;;;;;18.90;9.55;;;-0.50;99.90;;;;;;4977520;28;20136;-83
2022/12/13 11:45:47;;;;;;;19.50;9.82;;;-0.40;99.90;;;;;;4993824;28;20106;-83
2022/12/13 11:48:45;;;;;;;22.85;10.45;;;-0.60;99.90;;;;;;5010213;28;20054;-82
2022/12/13 11:51:16;;;;;;;19.15;9.50;;;-0.20;99.90;;;;;;4955102;28;20051;-81
2022/12/13 11:53:59;;;;;;;22.58;12.23;;;-0.10;99.90;;;;;;4939284;29;20059;-82
2022/12/13 11:56:30;;;;;;;20.52;10.40;;;0.00;99.90;;;;;;4950661;28;20095;-82
2022/12/13 11:59:26;;;;;;;23.13;10.82;;;0.00;99.90;;;;;;4935772;29;20131;-82
2022/12/13 12:02:04;;;;;;;20.65;10.93;;;0.20;99.90;;;;;;4935931;29;20059;-82
2022/12/13 12:04:45;;;;;;;19.38;8.98;;;0.20;99.90;;;;;;4935712;29;20044;-84
2022/12/13 12:07:18;;;;;;;18.42;9.77;;;0.20;99.90;;;;;;4935689;29;20064;-84
2022/12/13 12:10:14;;;;;;;16.52;8.27;;;0.30;99.90;;;;;;4935756;29;20051;-82
2022/12/13 12:12:54;;;;;;;18.23;7.88;;;0.30;99.90;;;;;;4941111;28;20043;-82
2022/12/13 12:15:25;;;;;;;14.30;6.75;;;0.30;99.90;;;;;;4982621;28;20085;-82
2022/12/13 12:17:51;;;;;;;14.48;6.80;;;0.50;99.90;;;;;;4976654;28;20125;-82
2022/12/13 12:20:46;;;;;;;19.50;7.85;;;0.10;99.90;;;;;;4993163;28;20233;-82
2022/12/13 12:23:38;;;;;;;21.60;8.93;;;0.50;99.90;;;;;;4989805;28;20050;-82
2022/12/13 12:26:12;;;;;;;17.92;9.23;;;0.70;99.90;;;;;;4977202;28;20439;-82
2022/12/13 12:29:22;;;;;;;15.52;7.10;;;1.30;99.90;;;;;;5043591;28;20087;-81
2022/12/13 12:31:54;;;;;;;12.07;6.43;;;0.60;99.90;;;;;;5036708;28;20087;-83
2022/12/13 12:34:34;;;;;;;12.45;6.55;;;0.10;99.90;;;;;;5060055;28;20072;-83
2022/12/13 12:37:12;;;;;;;12.93;6.13;;;0.70;99.90;;;;;;5069700;28;20154;-81
2022/12/13 12:39:53;;;;;;;11.48;6.07;;;0.60;99.90;;;;;;5072242;28;20459;-82
2022/12/13 12:42:54;;;;;;;13.23;6.38;;;0.50;99.90;;;;;;5070949;28;20081;-83
2022/12/13 12:45:56;;;;;;;12.18;6.30;;;0.40;99.90;;;;;;4994078;28;20144;-86
2022/12/13 12:48:37;;;;;;;12.75;6.05;;;0.40;99.90;;;;;;5011019;28;20081;-85
2022/12/13 12:51:30;;;;;;;15.55;7.32;;;0.40;99.90;;;;;;4995634;28;20048;-84
2022/12/13 12:54:19;;;;;;;14.10;6.80;;;0.40;99.90;;;;;;4991708;28;20054;-83
2022/12/13 12:57:09;;;;;;;15.00;6.63;;;0.40;99.90;;;;;;4985592;28;20167;-84
2022/12/13 13:00:08;;;;;;;14.10;6.40;;;0.30;99.90;;;;;;4992131;28;20050;-82